In Rescue
 
Open Full Screen Window  High Contrast Mode
Wind Gusting 22 knots
17
March 01, 2024 4:01 PM CST
Weather Information
Wind Direction
  190 °
Wind Speed
  17 kt (20 mph)
Wind Gust
  22 kt (25 mph)
Altimeter
29.73 in
Visibility
10 SM
Temperature
15° C
59° F
Dewpoint
00° C
32° F
Humidity
36%
Sky Condition
Clear
VFR

METAR KULM 012201Z AUTO 19017G22KT 10SM CLR 15/00 A2973 RMK AO2

FAA Disclaimer: The data displayed is for advisory purposes only and is not to be used for flight planning or operations.